sensor_id;sensor_type;location;lat;lon;timestamp;P1;durP1;ratioP1;P2;durP2;ratioP2
37731;SDS011;73769;56.932;24.254;2023-11-19T00:01:53;15.03;;;10.20;;
37731;SDS011;73769;56.932;24.254;2023-11-19T00:04:32;17.80;;;10.27;;
37731;SDS011;73769;56.932;24.254;2023-11-19T00:07:05;14.50;;;9.00;;
37731;SDS011;73769;56.932;24.254;2023-11-19T00:09:44;16.07;;;9.23;;
37731;SDS011;73769;56.932;24.254;2023-11-19T00:12:17;13.33;;;9.10;;
37731;SDS011;73769;56.932;24.254;2023-11-19T00:14:56;15.50;;;9.40;;
37731;SDS011;73769;56.932;24.254;2023-11-19T00:17:28;14.97;;;9.03;;
37731;SDS011;73769;56.932;24.254;2023-11-19T00:20:07;15.00;;;8.60;;
37731;SDS011;73769;56.932;24.254;2023-11-19T00:22:40;14.77;;;9.10;;
37731;SDS011;73769;56.932;24.254;2023-11-19T00:25:21;14.27;;;9.43;;
37731;SDS011;73769;56.932;24.254;2023-11-19T00:27:54;15.67;;;9.43;;
37731;SDS011;73769;56.932;24.254;2023-11-19T00:30:33;15.40;;;9.37;;
37731;SDS011;73769;56.932;24.254;2023-11-19T00:33:05;14.87;;;9.23;;
37731;SDS011;73769;56.932;24.254;2023-11-19T00:35:44;16.33;;;9.33;;
37731;SDS011;73769;56.932;24.254;2023-11-19T00:38:17;14.83;;;9.47;;
37731;SDS011;73769;56.932;24.254;2023-11-19T00:40:56;17.80;;;10.40;;
37731;SDS011;73769;56.932;24.254;2023-11-19T00:43:28;17.43;;;9.57;;
37731;SDS011;73769;56.932;24.254;2023-11-19T00:46:07;17.30;;;9.67;;
37731;SDS011;73769;56.932;24.254;2023-11-19T00:48:40;14.77;;;9.47;;
37731;SDS011;73769;56.932;24.254;2023-11-19T00:51:19;17.17;;;9.63;;
37731;SDS011;73769;56.932;24.254;2023-11-19T00:53:51;16.07;;;10.27;;
37731;SDS011;73769;56.932;24.254;2023-11-19T00:56:30;18.17;;;10.80;;
37731;SDS011;73769;56.932;24.254;2023-11-19T00:59:11;20.17;;;10.17;;
37731;SDS011;73769;56.932;24.254;2023-11-19T01:01:50;14.87;;;9.50;;
37731;SDS011;73769;56.932;24.254;2023-11-19T01:04:22;18.57;;;10.17;;
37731;SDS011;73769;56.932;24.254;2023-11-19T01:07:01;18.77;;;9.93;;
37731;SDS011;73769;56.932;24.254;2023-11-19T01:09:34;14.80;;;9.67;;
37731;SDS011;73769;56.932;24.254;2023-11-19T01:12:14;15.67;;;10.13;;
37731;SDS011;73769;56.932;24.254;2023-11-19T01:14:54;15.67;;;9.93;;
37731;SDS011;73769;56.932;24.254;2023-11-19T01:17:33;17.47;;;9.67;;
37731;SDS011;73769;56.932;24.254;2023-11-19T01:20:05;16.97;;;10.20;;
37731;SDS011;73769;56.932;24.254;2023-11-19T01:22:44;16.37;;;10.10;;
37731;SDS011;73769;56.932;24.254;2023-11-19T01:25:16;16.20;;;10.10;;
37731;SDS011;73769;56.932;24.254;2023-11-19T01:27:55;20.10;;;11.07;;
37731;SDS011;73769;56.932;24.254;2023-11-19T01:30:27;18.43;;;10.30;;
37731;SDS011;73769;56.932;24.254;2023-11-19T01:33:06;15.53;;;9.87;;
37731;SDS011;73769;56.932;24.254;2023-11-19T01:35:38;17.67;;;10.17;;
37731;SDS011;73769;56.932;24.254;2023-11-19T01:38:17;15.83;;;10.63;;
37731;SDS011;73769;56.932;24.254;2023-11-19T01:40:50;19.20;;;11.67;;
37731;SDS011;73769;56.932;24.254;2023-11-19T01:43:38;18.63;;;11.50;;
37731;SDS011;73769;56.932;24.254;2023-11-19T01:46:11;21.83;;;11.80;;
37731;SDS011;73769;56.932;24.254;2023-11-19T01:48:50;18.93;;;11.07;;
37731;SDS011;73769;56.932;24.254;2023-11-19T01:51:23;17.63;;;10.77;;
37731;SDS011;73769;56.932;24.254;2023-11-19T01:54:02;19.50;;;10.90;;
37731;SDS011;73769;56.932;24.254;2023-11-19T01:56:35;20.30;;;11.27;;
37731;SDS011;73769;56.932;24.254;2023-11-19T01:59:14;21.70;;;11.67;;
37731;SDS011;73769;56.932;24.254;2023-11-19T02:01:48;19.47;;;11.37;;
37731;SDS011;73769;56.932;24.254;2023-11-19T02:04:32;17.97;;;11.13;;
37731;SDS011;73769;56.932;24.254;2023-11-19T02:07:05;18.87;;;11.83;;
37731;SDS011;73769;56.932;24.254;2023-11-19T02:09:48;22.50;;;12.20;;
37731;SDS011;73769;56.932;24.254;2023-11-19T02:12:21;19.73;;;11.37;;
37731;SDS011;73769;56.932;24.254;2023-11-19T02:15:00;21.40;;;11.37;;
37731;SDS011;73769;56.932;24.254;2023-11-19T02:17:33;21.03;;;12.03;;
37731;SDS011;73769;56.932;24.254;2023-11-19T02:20:12;19.83;;;11.33;;
37731;SDS011;73769;56.932;24.254;2023-11-19T02:22:45;19.00;;;11.50;;
37731;SDS011;73769;56.932;24.254;2023-11-19T02:25:29;20.50;;;12.30;;
37731;SDS011;73769;56.932;24.254;2023-11-19T02:28:04;21.83;;;12.13;;
37731;SDS011;73769;56.932;24.254;2023-11-19T02:30:43;23.53;;;12.53;;
37731;SDS011;73769;56.932;24.254;2023-11-19T02:33:15;20.87;;;11.83;;
37731;SDS011;73769;56.932;24.254;2023-11-19T02:35:54;21.67;;;12.37;;
37731;SDS011;73769;56.932;24.254;2023-11-19T02:38:26;19.50;;;12.33;;
37731;SDS011;73769;56.932;24.254;2023-11-19T02:41:06;19.57;;;11.87;;
37731;SDS011;73769;56.932;24.254;2023-11-19T02:43:38;22.33;;;12.47;;
37731;SDS011;73769;56.932;24.254;2023-11-19T02:46:17;17.30;;;12.00;;
37731;SDS011;73769;56.932;24.254;2023-11-19T02:48:50;19.33;;;11.80;;
37731;SDS011;73769;56.932;24.254;2023-11-19T02:51:29;20.10;;;11.07;;
37731;SDS011;73769;56.932;24.254;2023-11-19T02:54:01;20.97;;;10.80;;
37731;SDS011;73769;56.932;24.254;2023-11-19T02:56:44;18.60;;;11.40;;
37731;SDS011;73769;56.932;24.254;2023-11-19T02:59:16;21.47;;;11.60;;
37731;SDS011;73769;56.932;24.254;2023-11-19T03:01:55;21.60;;;12.07;;
37731;SDS011;73769;56.932;24.254;2023-11-19T03:04:28;20.10;;;11.47;;
37731;SDS011;73769;56.932;24.254;2023-11-19T03:07:08;16.00;;;10.77;;
37731;SDS011;73769;56.932;24.254;2023-11-19T03:09:41;18.17;;;11.30;;
37731;SDS011;73769;56.932;24.254;2023-11-19T03:12:19;17.70;;;10.17;;
37731;SDS011;73769;56.932;24.254;2023-11-19T03:14:51;16.23;;;10.10;;
37731;SDS011;73769;56.932;24.254;2023-11-19T03:17:31;18.37;;;10.93;;
37731;SDS011;73769;56.932;24.254;2023-11-19T03:20:04;15.83;;;10.57;;
37731;SDS011;73769;56.932;24.254;2023-11-19T03:22:44;18.30;;;11.00;;
37731;SDS011;73769;56.932;24.254;2023-11-19T03:25:16;19.73;;;11.50;;
37731;SDS011;73769;56.932;24.254;2023-11-19T03:27:55;17.47;;;11.77;;
37731;SDS011;73769;56.932;24.254;2023-11-19T03:30:28;17.47;;;9.90;;
37731;SDS011;73769;56.932;24.254;2023-11-19T03:33:07;16.43;;;10.83;;
37731;SDS011;73769;56.932;24.254;2023-11-19T03:35:40;18.10;;;11.40;;
37731;SDS011;73769;56.932;24.254;2023-11-19T03:38:18;15.87;;;10.40;;
37731;SDS011;73769;56.932;24.254;2023-11-19T03:40:50;22.83;;;12.67;;
37731;SDS011;73769;56.932;24.254;2023-11-19T03:43:30;21.57;;;11.73;;
37731;SDS011;73769;56.932;24.254;2023-11-19T03:46:03;19.10;;;11.17;;
37731;SDS011;73769;56.932;24.254;2023-11-19T03:48:42;17.80;;;10.60;;
37731;SDS011;73769;56.932;24.254;2023-11-19T03:51:15;16.80;;;10.73;;
37731;SDS011;73769;56.932;24.254;2023-11-19T03:53:54;18.00;;;10.90;;
37731;SDS011;73769;56.932;24.254;2023-11-19T03:56:27;17.67;;;10.80;;
37731;SDS011;73769;56.932;24.254;2023-11-19T03:59:05;17.40;;;11.60;;
37731;SDS011;73769;56.932;24.254;2023-11-19T04:01:37;18.50;;;11.10;;
37731;SDS011;73769;56.932;24.254;2023-11-19T04:04:16;17.73;;;11.13;;
37731;SDS011;73769;56.932;24.254;2023-11-19T04:06:48;19.87;;;11.20;;
37731;SDS011;73769;56.932;24.254;2023-11-19T04:09:27;18.93;;;11.73;;
37731;SDS011;73769;56.932;24.254;2023-11-19T04:12:00;16.20;;;10.53;;
37731;SDS011;73769;56.932;24.254;2023-11-19T04:14:39;24.30;;;11.07;;
37731;SDS011;73769;56.932;24.254;2023-11-19T04:17:12;18.43;;;11.33;;
37731;SDS011;73769;56.932;24.254;2023-11-19T04:19:51;18.27;;;10.30;;
37731;SDS011;73769;56.932;24.254;2023-11-19T04:22:23;20.23;;;11.37;;
37731;SDS011;73769;56.932;24.254;2023-11-19T04:25:02;18.80;;;10.57;;
37731;SDS011;73769;56.932;24.254;2023-11-19T04:27:35;15.93;;;10.90;;
37731;SDS011;73769;56.932;24.254;2023-11-19T04:30:14;15.70;;;10.47;;
37731;SDS011;73769;56.932;24.254;2023-11-19T04:32:47;20.30;;;11.27;;
37731;SDS011;73769;56.932;24.254;2023-11-19T04:35:26;17.90;;;10.27;;
37731;SDS011;73769;56.932;24.254;2023-11-19T04:37:58;17.93;;;10.07;;
37731;SDS011;73769;56.932;24.254;2023-11-19T04:40:37;20.67;;;11.33;;
37731;SDS011;73769;56.932;24.254;2023-11-19T04:43:10;19.63;;;11.20;;
37731;SDS011;73769;56.932;24.254;2023-11-19T04:45:49;17.47;;;10.93;;
37731;SDS011;73769;56.932;24.254;2023-11-19T04:48:21;18.27;;;10.43;;
37731;SDS011;73769;56.932;24.254;2023-11-19T04:51:12;19.73;;;11.57;;
37731;SDS011;73769;56.932;24.254;2023-11-19T04:53:44;16.10;;;10.93;;
37731;SDS011;73769;56.932;24.254;2023-11-19T04:56:23;19.30;;;11.70;;
37731;SDS011;73769;56.932;24.254;2023-11-19T04:58:56;18.07;;;10.17;;
37731;SDS011;73769;56.932;24.254;2023-11-19T05:01:35;17.27;;;11.00;;
37731;SDS011;73769;56.932;24.254;2023-11-19T05:04:08;21.33;;;11.43;;
37731;SDS011;73769;56.932;24.254;2023-11-19T05:06:47;18.60;;;12.13;;
37731;SDS011;73769;56.932;24.254;2023-11-19T05:09:20;18.10;;;11.03;;
37731;SDS011;73769;56.932;24.254;2023-11-19T05:11:58;18.23;;;11.03;;
37731;SDS011;73769;56.932;24.254;2023-11-19T05:14:30;17.40;;;10.43;;
37731;SDS011;73769;56.932;24.254;2023-11-19T05:17:09;18.73;;;10.77;;
37731;SDS011;73769;56.932;24.254;2023-11-19T05:19:41;16.73;;;10.77;;
37731;SDS011;73769;56.932;24.254;2023-11-19T05:22:20;15.30;;;10.53;;
37731;SDS011;73769;56.932;24.254;2023-11-19T05:24:53;18.83;;;10.53;;
37731;SDS011;73769;56.932;24.254;2023-11-19T05:27:32;24.17;;;10.97;;
37731;SDS011;73769;56.932;24.254;2023-11-19T05:30:05;19.43;;;11.43;;
37731;SDS011;73769;56.932;24.254;2023-11-19T05:32:44;18.97;;;10.67;;
37731;SDS011;73769;56.932;24.254;2023-11-19T05:35:17;20.27;;;10.93;;
37731;SDS011;73769;56.932;24.254;2023-11-19T05:37:56;17.30;;;10.50;;
37731;SDS011;73769;56.932;24.254;2023-11-19T05:40:28;20.13;;;11.10;;
37731;SDS011;73769;56.932;24.254;2023-11-19T05:43:07;18.90;;;11.37;;
37731;SDS011;73769;56.932;24.254;2023-11-19T05:45:40;17.83;;;9.97;;
37731;SDS011;73769;56.932;24.254;2023-11-19T05:48:19;18.60;;;10.60;;
37731;SDS011;73769;56.932;24.254;2023-11-19T05:50:52;18.97;;;11.10;;
37731;SDS011;73769;56.932;24.254;2023-11-19T05:53:31;17.93;;;10.97;;
37731;SDS011;73769;56.932;24.254;2023-11-19T05:56:04;17.20;;;11.80;;
37731;SDS011;73769;56.932;24.254;2023-11-19T05:58:43;16.97;;;11.27;;
37731;SDS011;73769;56.932;24.254;2023-11-19T06:01:16;20.03;;;11.07;;
37731;SDS011;73769;56.932;24.254;2023-11-19T06:03:55;17.83;;;11.17;;
37731;SDS011;73769;56.932;24.254;2023-11-19T06:06:28;17.17;;;11.10;;
37731;SDS011;73769;56.932;24.254;2023-11-19T06:09:07;15.73;;;10.33;;
37731;SDS011;73769;56.932;24.254;2023-11-19T06:11:42;17.10;;;11.27;;
37731;SDS011;73769;56.932;24.254;2023-11-19T06:14:21;17.40;;;10.80;;
37731;SDS011;73769;56.932;24.254;2023-11-19T06:16:54;17.97;;;11.43;;
37731;SDS011;73769;56.932;24.254;2023-11-19T06:19:33;16.63;;;11.00;;
37731;SDS011;73769;56.932;24.254;2023-11-19T06:22:06;18.57;;;11.40;;
37731;SDS011;73769;56.932;24.254;2023-11-19T06:24:45;21.67;;;12.47;;
37731;SDS011;73769;56.932;24.254;2023-11-19T06:27:18;23.47;;;13.80;;
37731;SDS011;73769;56.932;24.254;2023-11-19T06:29:56;21.20;;;12.40;;
37731;SDS011;73769;56.932;24.254;2023-11-19T06:32:28;23.27;;;11.57;;
37731;SDS011;73769;56.932;24.254;2023-11-19T06:35:07;21.50;;;12.30;;
37731;SDS011;73769;56.932;24.254;2023-11-19T06:37:40;20.50;;;12.63;;
37731;SDS011;73769;56.932;24.254;2023-11-19T06:40:19;19.70;;;11.97;;
37731;SDS011;73769;56.932;24.254;2023-11-19T06:42:52;21.90;;;12.07;;
37731;SDS011;73769;56.932;24.254;2023-11-19T06:45:31;19.50;;;11.57;;
37731;SDS011;73769;56.932;24.254;2023-11-19T06:48:04;20.57;;;12.40;;
37731;SDS011;73769;56.932;24.254;2023-11-19T06:50:43;21.00;;;12.37;;
37731;SDS011;73769;56.932;24.254;2023-11-19T06:53:16;22.93;;;12.77;;
37731;SDS011;73769;56.932;24.254;2023-11-19T06:55:54;22.17;;;12.67;;
37731;SDS011;73769;56.932;24.254;2023-11-19T06:58:27;21.73;;;13.13;;
37731;SDS011;73769;56.932;24.254;2023-11-19T07:01:06;21.33;;;13.70;;
37731;SDS011;73769;56.932;24.254;2023-11-19T07:03:39;24.60;;;13.83;;
37731;SDS011;73769;56.932;24.254;2023-11-19T07:06:19;22.17;;;13.30;;
37731;SDS011;73769;56.932;24.254;2023-11-19T07:09:05;26.77;;;14.80;;
37731;SDS011;73769;56.932;24.254;2023-11-19T07:11:44;21.70;;;13.30;;
37731;SDS011;73769;56.932;24.254;2023-11-19T07:14:17;28.57;;;14.03;;
37731;SDS011;73769;56.932;24.254;2023-11-19T07:16:56;20.30;;;13.23;;
37731;SDS011;73769;56.932;24.254;2023-11-19T07:19:29;21.23;;;12.23;;
37731;SDS011;73769;56.932;24.254;2023-11-19T07:22:07;24.73;;;13.87;;
37731;SDS011;73769;56.932;24.254;2023-11-19T07:24:40;25.23;;;13.73;;
37731;SDS011;73769;56.932;24.254;2023-11-19T07:27:19;21.43;;;12.67;;
37731;SDS011;73769;56.932;24.254;2023-11-19T07:29:51;19.90;;;12.77;;
37731;SDS011;73769;56.932;24.254;2023-11-19T07:32:30;23.60;;;13.83;;
37731;SDS011;73769;56.932;24.254;2023-11-19T07:35:02;23.93;;;14.03;;
37731;SDS011;73769;56.932;24.254;2023-11-19T07:37:42;24.13;;;13.47;;
37731;SDS011;73769;56.932;24.254;2023-11-19T07:40:14;25.17;;;13.90;;
37731;SDS011;73769;56.932;24.254;2023-11-19T07:42:53;23.07;;;13.30;;
37731;SDS011;73769;56.932;24.254;2023-11-19T07:45:26;21.83;;;12.47;;
37731;SDS011;73769;56.932;24.254;2023-11-19T07:48:05;18.43;;;12.07;;
37731;SDS011;73769;56.932;24.254;2023-11-19T07:50:37;20.57;;;12.43;;
37731;SDS011;73769;56.932;24.254;2023-11-19T07:53:16;22.87;;;12.60;;
37731;SDS011;73769;56.932;24.254;2023-11-19T07:55:49;18.33;;;11.53;;
37731;SDS011;73769;56.932;24.254;2023-11-19T07:58:28;26.27;;;12.07;;
37731;SDS011;73769;56.932;24.254;2023-11-19T08:01:00;19.80;;;11.77;;
37731;SDS011;73769;56.932;24.254;2023-11-19T08:03:39;23.63;;;13.37;;
37731;SDS011;73769;56.932;24.254;2023-11-19T08:06:27;20.73;;;12.63;;
37731;SDS011;73769;56.932;24.254;2023-11-19T08:09:06;19.77;;;11.87;;
37731;SDS011;73769;56.932;24.254;2023-11-19T08:11:40;19.63;;;12.00;;
37731;SDS011;73769;56.932;24.254;2023-11-19T08:14:19;22.57;;;12.63;;
37731;SDS011;73769;56.932;24.254;2023-11-19T08:16:51;23.40;;;12.63;;
37731;SDS011;73769;56.932;24.254;2023-11-19T08:19:30;19.13;;;12.03;;
37731;SDS011;73769;56.932;24.254;2023-11-19T08:22:03;16.47;;;10.83;;
37731;SDS011;73769;56.932;24.254;2023-11-19T08:24:41;21.63;;;11.60;;
37731;SDS011;73769;56.932;24.254;2023-11-19T08:27:14;17.37;;;11.03;;
37731;SDS011;73769;56.932;24.254;2023-11-19T08:29:53;18.90;;;11.47;;
37731;SDS011;73769;56.932;24.254;2023-11-19T08:32:25;24.27;;;11.80;;
37731;SDS011;73769;56.932;24.254;2023-11-19T08:35:05;22.53;;;11.53;;
37731;SDS011;73769;56.932;24.254;2023-11-19T08:37:38;20.03;;;11.50;;
37731;SDS011;73769;56.932;24.254;2023-11-19T08:40:17;16.37;;;11.00;;
37731;SDS011;73769;56.932;24.254;2023-11-19T08:42:50;20.67;;;11.37;;
37731;SDS011;73769;56.932;24.254;2023-11-19T08:45:29;19.53;;;12.37;;
37731;SDS011;73769;56.932;24.254;2023-11-19T08:48:02;21.47;;;11.77;;
37731;SDS011;73769;56.932;24.254;2023-11-19T08:50:41;18.30;;;11.53;;
37731;SDS011;73769;56.932;24.254;2023-11-19T08:53:13;20.17;;;11.47;;
37731;SDS011;73769;56.932;24.254;2023-11-19T08:55:52;25.50;;;12.13;;
37731;SDS011;73769;56.932;24.254;2023-11-19T08:58:25;23.97;;;12.70;;
37731;SDS011;73769;56.932;24.254;2023-11-19T09:01:03;25.27;;;13.40;;
37731;SDS011;73769;56.932;24.254;2023-11-19T09:03:36;28.00;;;14.83;;
37731;SDS011;73769;56.932;24.254;2023-11-19T09:06:15;35.27;;;15.33;;
37731;SDS011;73769;56.932;24.254;2023-11-19T09:08:48;19.47;;;12.23;;
37731;SDS011;73769;56.932;24.254;2023-11-19T09:11:31;21.73;;;12.73;;
37731;SDS011;73769;56.932;24.254;2023-11-19T09:14:03;26.67;;;14.37;;
37731;SDS011;73769;56.932;24.254;2023-11-19T09:16:41;21.37;;;12.27;;
37731;SDS011;73769;56.932;24.254;2023-11-19T09:19:13;21.17;;;12.13;;
37731;SDS011;73769;56.932;24.254;2023-11-19T09:21:52;23.57;;;12.80;;
37731;SDS011;73769;56.932;24.254;2023-11-19T09:24:25;22.07;;;11.67;;
37731;SDS011;73769;56.932;24.254;2023-11-19T09:27:04;19.33;;;12.50;;
37731;SDS011;73769;56.932;24.254;2023-11-19T09:29:37;25.97;;;14.17;;
37731;SDS011;73769;56.932;24.254;2023-11-19T09:32:15;24.60;;;14.00;;
37731;SDS011;73769;56.932;24.254;2023-11-19T09:34:48;17.70;;;11.10;;
37731;SDS011;73769;56.932;24.254;2023-11-19T09:37:26;21.90;;;11.70;;
37731;SDS011;73769;56.932;24.254;2023-11-19T09:39:59;46.20;;;20.23;;
37731;SDS011;73769;56.932;24.254;2023-11-19T09:42:44;17.60;;;11.27;;
37731;SDS011;73769;56.932;24.254;2023-11-19T09:45:17;27.30;;;14.93;;
37731;SDS011;73769;56.932;24.254;2023-11-19T09:47:58;24.93;;;15.30;;
37731;SDS011;73769;56.932;24.254;2023-11-19T09:50:32;42.80;;;21.00;;
37731;SDS011;73769;56.932;24.254;2023-11-19T09:53:11;34.13;;;18.50;;
37731;SDS011;73769;56.932;24.254;2023-11-19T09:55:44;30.57;;;16.60;;
37731;SDS011;73769;56.932;24.254;2023-11-19T09:58:23;22.57;;;13.80;;
37731;SDS011;73769;56.932;24.254;2023-11-19T10:01:00;34.20;;;18.17;;
37731;SDS011;73769;56.932;24.254;2023-11-19T10:03:44;35.57;;;18.67;;
37731;SDS011;73769;56.932;24.254;2023-11-19T10:06:20;17.97;;;11.07;;
37731;SDS011;73769;56.932;24.254;2023-11-19T10:08:59;20.53;;;11.60;;
37731;SDS011;73769;56.932;24.254;2023-11-19T10:11:32;25.03;;;13.33;;
37731;SDS011;73769;56.932;24.254;2023-11-19T10:14:12;29.30;;;16.37;;
37731;SDS011;73769;56.932;24.254;2023-11-19T10:16:46;30.43;;;15.87;;
37731;SDS011;73769;56.932;24.254;2023-11-19T10:19:24;28.17;;;15.07;;
37731;SDS011;73769;56.932;24.254;2023-11-19T10:21:56;25.17;;;13.23;;
37731;SDS011;73769;56.932;24.254;2023-11-19T10:24:44;20.40;;;11.23;;
37731;SDS011;73769;56.932;24.254;2023-11-19T10:27:24;21.73;;;11.90;;
37731;SDS011;73769;56.932;24.254;2023-11-19T10:30:03;17.80;;;11.50;;
37731;SDS011;73769;56.932;24.254;2023-11-19T10:32:39;19.23;;;13.37;;
37731;SDS011;73769;56.932;24.254;2023-11-19T10:35:18;20.83;;;13.97;;
37731;SDS011;73769;56.932;24.254;2023-11-19T10:37:51;16.70;;;11.27;;
37731;SDS011;73769;56.932;24.254;2023-11-19T10:40:37;16.03;;;10.17;;
37731;SDS011;73769;56.932;24.254;2023-11-19T10:43:10;20.93;;;12.30;;
37731;SDS011;73769;56.932;24.254;2023-11-19T10:45:49;19.50;;;12.50;;
37731;SDS011;73769;56.932;24.254;2023-11-19T10:48:22;16.93;;;11.43;;
37731;SDS011;73769;56.932;24.254;2023-11-19T10:51:04;13.60;;;9.03;;
37731;SDS011;73769;56.932;24.254;2023-11-19T10:53:43;19.40;;;11.50;;
37731;SDS011;73769;56.932;24.254;2023-11-19T10:56:26;14.03;;;9.57;;
37731;SDS011;73769;56.932;24.254;2023-11-19T10:59:02;17.30;;;10.10;;
37731;SDS011;73769;56.932;24.254;2023-11-19T11:01:45;17.03;;;9.10;;
37731;SDS011;73769;56.932;24.254;2023-11-19T11:04:22;14.33;;;9.23;;
37731;SDS011;73769;56.932;24.254;2023-11-19T11:07:03;12.10;;;8.67;;
37731;SDS011;73769;56.932;24.254;2023-11-19T11:09:36;13.57;;;9.13;;
37731;SDS011;73769;56.932;24.254;2023-11-19T11:12:15;14.37;;;9.20;;
37731;SDS011;73769;56.932;24.254;2023-11-19T11:14:53;21.13;;;10.87;;
37731;SDS011;73769;56.932;24.254;2023-11-19T11:17:33;20.97;;;13.00;;
37731;SDS011;73769;56.932;24.254;2023-11-19T11:20:07;28.57;;;14.93;;
37731;SDS011;73769;56.932;24.254;2023-11-19T11:22:54;20.03;;;12.37;;
37731;SDS011;73769;56.932;24.254;2023-11-19T11:38:06;21.97;;;12.97;;
37731;SDS011;73769;56.932;24.254;2023-11-19T11:41:13;12.53;;;8.67;;
37731;SDS011;73769;56.932;24.254;2023-11-19T11:43:59;14.23;;;8.93;;
37731;SDS011;73769;56.932;24.254;2023-11-19T11:49:11;13.90;;;8.37;;
37731;SDS011;73769;56.932;24.254;2023-11-19T11:51:57;11.40;;;8.27;;
37731;SDS011;73769;56.932;24.254;2023-11-19T11:54:30;13.27;;;8.60;;
37731;SDS011;73769;56.932;24.254;2023-11-19T11:57:16;22.93;;;10.47;;
37731;SDS011;73769;56.932;24.254;2023-11-19T11:59:48;39.60;;;18.77;;
37731;SDS011;73769;56.932;24.254;2023-11-19T12:02:27;26.80;;;13.13;;
37731;SDS011;73769;56.932;24.254;2023-11-19T12:05:01;22.47;;;12.73;;
37731;SDS011;73769;56.932;24.254;2023-11-19T12:07:39;17.67;;;11.07;;
37731;SDS011;73769;56.932;24.254;2023-11-19T12:10:12;15.60;;;9.07;;
37731;SDS011;73769;56.932;24.254;2023-11-19T12:12:58;14.27;;;9.27;;
37731;SDS011;73769;56.932;24.254;2023-11-19T12:15:31;13.60;;;9.27;;
37731;SDS011;73769;56.932;24.254;2023-11-19T12:18:10;12.37;;;7.50;;
37731;SDS011;73769;56.932;24.254;2023-11-19T12:20:43;10.90;;;7.30;;
37731;SDS011;73769;56.932;24.254;2023-11-19T12:23:22;16.57;;;10.73;;
37731;SDS011;73769;56.932;24.254;2023-11-19T12:25:54;25.23;;;10.07;;
37731;SDS011;73769;56.932;24.254;2023-11-19T12:43:23;8.30;;;6.77;;
37731;SDS011;73769;56.932;24.254;2023-11-19T12:46:22;62.77;;;11.83;;
37731;SDS011;73769;56.932;24.254;2023-11-19T18:16:25;8.20;;;5.53;;
